sensor_id;sensor_type;location;lat;lon;timestamp;temperature;humidity
67364;HTU21D;54250;45.572;38.086;2024-01-15T00:01:30;3.67;99.55
67364;HTU21D;54250;45.572;38.086;2024-01-15T00:04:15;3.72;99.64
67364;HTU21D;54250;45.572;38.086;2024-01-15T00:06:40;3.79;99.67
67364;HTU21D;54250;45.572;38.086;2024-01-15T00:09:06;3.84;99.59
67364;HTU21D;54250;45.572;38.086;2024-01-15T00:11:32;3.86;99.36
67364;HTU21D;54250;45.572;38.086;2024-01-15T00:13:58;3.82;99.38
67364;HTU21D;54250;45.572;38.086;2024-01-15T00:16:24;3.83;99.48
67364;HTU21D;54250;45.572;38.086;2024-01-15T00:18:50;3.86;99.35
67364;HTU21D;54250;45.572;38.086;2024-01-15T00:21:16;3.84;99.26
67364;HTU21D;54250;45.572;38.086;2024-01-15T00:23:43;3.84;99.27
67364;HTU21D;54250;45.572;38.086;2024-01-15T00:26:12;3.92;99.22
67364;HTU21D;54250;45.572;38.086;2024-01-15T00:28:38;3.95;99.06
67364;HTU21D;54250;45.572;38.086;2024-01-15T00:31:05;3.99;98.97
67364;HTU21D;54250;45.572;38.086;2024-01-15T00:33:31;3.97;98.84
67364;HTU21D;54250;45.572;38.086;2024-01-15T00:35:57;3.92;98.70
67364;HTU21D;54250;45.572;38.086;2024-01-15T00:38:23;3.80;98.55
67364;HTU21D;54250;45.572;38.086;2024-01-15T00:40:48;3.75;98.52
67364;HTU21D;54250;45.572;38.086;2024-01-15T00:43:14;3.77;98.06
67364;HTU21D;54250;45.572;38.086;2024-01-15T00:45:44;3.80;98.36
67364;HTU21D;54250;45.572;38.086;2024-01-15T00:48:28;3.86;97.71
67364;HTU21D;54250;45.572;38.086;2024-01-15T00:50:54;3.88;97.00
67364;HTU21D;54250;45.572;38.086;2024-01-15T00:53:20;3.97;96.97
67364;HTU21D;54250;45.572;38.086;2024-01-15T00:56:06;3.94;96.69
67364;HTU21D;54250;45.572;38.086;2024-01-15T00:58:31;3.89;96.86
67364;HTU21D;54250;45.572;38.086;2024-01-15T01:00:57;3.83;97.19
67364;HTU21D;54250;45.572;38.086;2024-01-15T01:03:23;3.78;97.02
67364;HTU21D;54250;45.572;38.086;2024-01-15T01:05:49;3.68;96.98
67364;HTU21D;54250;45.572;38.086;2024-01-15T01:08:18;3.54;97.32
67364;HTU21D;54250;45.572;38.086;2024-01-15T01:10:44;3.46;97.22
67364;HTU21D;54250;45.572;38.086;2024-01-15T01:13:09;3.34;97.62
67364;HTU21D;54250;45.572;38.086;2024-01-15T01:15:35;3.26;97.78
67364;HTU21D;54250;45.572;38.086;2024-01-15T01:18:01;3.23;98.48
67364;HTU21D;54250;45.572;38.086;2024-01-15T01:20:27;3.19;98.93
67364;HTU21D;54250;45.572;38.086;2024-01-15T01:22:53;3.14;99.15
67364;HTU21D;54250;45.572;38.086;2024-01-15T01:28:03;3.12;99.36
67364;HTU21D;54250;45.572;38.086;2024-01-15T01:30:29;3.11;99.56
67364;HTU21D;54250;45.572;38.086;2024-01-15T01:32:54;3.11;99.95
67364;HTU21D;54250;45.572;38.086;2024-01-15T01:35:20;3.15;100.03
67364;HTU21D;54250;45.572;38.086;2024-01-15T01:40:31;3.21;100.07
67364;HTU21D;54250;45.572;38.086;2024-01-15T01:42:57;3.19;100.22
67364;HTU21D;54250;45.572;38.086;2024-01-15T01:45:23;3.13;100.16
67364;HTU21D;54250;45.572;38.086;2024-01-15T01:50:54;2.87;100.84
67364;HTU21D;54250;45.572;38.086;2024-01-15T01:53:20;2.88;100.93
67364;HTU21D;54250;45.572;38.086;2024-01-15T01:55:48;2.89;100.94
67364;HTU21D;54250;45.572;38.086;2024-01-15T01:58:14;2.86;100.99
67364;HTU21D;54250;45.572;38.086;2024-01-15T02:00:40;2.85;100.93
67364;HTU21D;54250;45.572;38.086;2024-01-15T02:05:51;3.01;100.90
67364;HTU21D;54250;45.572;38.086;2024-01-15T02:08:55;3.04;100.51
67364;HTU21D;54250;45.572;38.086;2024-01-15T02:11:21;3.01;100.77
67364;HTU21D;54250;45.572;38.086;2024-01-15T02:13:47;3.08;100.72
67364;HTU21D;54250;45.572;38.086;2024-01-15T02:16:13;3.14;100.53
67364;HTU21D;54250;45.572;38.086;2024-01-15T02:18:43;3.15;100.38
67364;HTU21D;54250;45.572;38.086;2024-01-15T02:21:10;3.15;100.36
67364;HTU21D;54250;45.572;38.086;2024-01-15T02:23:37;3.11;100.32
67364;HTU21D;54250;45.572;38.086;2024-01-15T02:26:04;3.11;100.29
67364;HTU21D;54250;45.572;38.086;2024-01-15T02:28:30;3.04;100.23
67364;HTU21D;54250;45.572;38.086;2024-01-15T02:34:00;2.87;100.37
67364;HTU21D;54250;45.572;38.086;2024-01-15T02:36:26;2.84;100.37
67364;HTU21D;54250;45.572;38.086;2024-01-15T02:38:52;2.82;100.50
67364;HTU21D;54250;45.572;38.086;2024-01-15T02:41:17;2.88;100.28
67364;HTU21D;54250;45.572;38.086;2024-01-15T02:43:43;2.90;100.22
67364;HTU21D;54250;45.572;38.086;2024-01-15T02:46:09;3.00;100.06
67364;HTU21D;54250;45.572;38.086;2024-01-15T02:48:35;3.11;99.86
67364;HTU21D;54250;45.572;38.086;2024-01-15T02:51:01;3.25;99.56
67364;HTU21D;54250;45.572;38.086;2024-01-15T02:53:27;3.33;99.31
67364;HTU21D;54250;45.572;38.086;2024-01-15T02:55:53;3.39;99.07
67364;HTU21D;54250;45.572;38.086;2024-01-15T02:58:19;3.33;99.01
67364;HTU21D;54250;45.572;38.086;2024-01-15T03:00:45;3.16;99.09
67364;HTU21D;54250;45.572;38.086;2024-01-15T03:03:12;3.03;99.43
67364;HTU21D;54250;45.572;38.086;2024-01-15T03:05:38;2.91;99.60
67364;HTU21D;54250;45.572;38.086;2024-01-15T03:10:49;2.71;99.55
67364;HTU21D;54250;45.572;38.086;2024-01-15T03:13:52;2.56;99.49
67364;HTU21D;54250;45.572;38.086;2024-01-15T03:16:18;2.50;99.62
67364;HTU21D;54250;45.572;38.086;2024-01-15T03:18:45;2.45;99.54
67364;HTU21D;54250;45.572;38.086;2024-01-15T03:21:11;2.40;99.49
67364;HTU21D;54250;45.572;38.086;2024-01-15T03:23:37;2.39;99.44
67364;HTU21D;54250;45.572;38.086;2024-01-15T03:26:03;2.37;99.35
67364;HTU21D;54250;45.572;38.086;2024-01-15T03:28:29;2.36;99.26
67364;HTU21D;54250;45.572;38.086;2024-01-15T03:30:56;2.35;99.19
67364;HTU21D;54250;45.572;38.086;2024-01-15T03:33:21;2.35;99.12
67364;HTU21D;54250;45.572;38.086;2024-01-15T03:35:47;2.34;99.04
67364;HTU21D;54250;45.572;38.086;2024-01-15T03:38:13;2.31;98.97
67364;HTU21D;54250;45.572;38.086;2024-01-15T03:40:39;2.29;98.90
67364;HTU21D;54250;45.572;38.086;2024-01-15T03:43:05;2.25;98.89
67364;HTU21D;54250;45.572;38.086;2024-01-15T03:45:49;2.22;98.85
67364;HTU21D;54250;45.572;38.086;2024-01-15T03:48:15;2.20;98.87
67364;HTU21D;54250;45.572;38.086;2024-01-15T03:50:41;2.20;98.90
67364;HTU21D;54250;45.572;38.086;2024-01-15T03:53:07;2.21;98.87
67364;HTU21D;54250;45.572;38.086;2024-01-15T03:55:33;2.19;98.84
67364;HTU21D;54250;45.572;38.086;2024-01-15T03:57:59;2.17;98.87
67364;HTU21D;54250;45.572;38.086;2024-01-15T04:00:25;2.17;98.89
67364;HTU21D;54250;45.572;38.086;2024-01-15T04:02:50;2.17;98.86
67364;HTU21D;54250;45.572;38.086;2024-01-15T04:05:17;2.14;98.90
67364;HTU21D;54250;45.572;38.086;2024-01-15T04:08:01;2.12;98.96
67364;HTU21D;54250;45.572;38.086;2024-01-15T04:10:27;2.13;98.98
67364;HTU21D;54250;45.572;38.086;2024-01-15T04:12:52;2.15;98.93
67364;HTU21D;54250;45.572;38.086;2024-01-15T04:15:37;2.15;98.84
67364;HTU21D;54250;45.572;38.086;2024-01-15T04:18:03;2.08;98.87
67364;HTU21D;54250;45.572;38.086;2024-01-15T04:20:29;2.06;99.10
67364;HTU21D;54250;45.572;38.086;2024-01-15T04:22:55;2.06;99.13
67364;HTU21D;54250;45.572;38.086;2024-01-15T04:25:39;2.00;99.06
67364;HTU21D;54250;45.572;38.086;2024-01-15T04:28:09;1.96;99.26
67364;HTU21D;54250;45.572;38.086;2024-01-15T04:30:35;1.94;99.31
67364;HTU21D;54250;45.572;38.086;2024-01-15T04:33:01;1.92;99.35
67364;HTU21D;54250;45.572;38.086;2024-01-15T04:36:04;1.96;99.32
67364;HTU21D;54250;45.572;38.086;2024-01-15T04:38:30;2.05;99.32
67364;HTU21D;54250;45.572;38.086;2024-01-15T04:41:14;2.08;99.28
67364;HTU21D;54250;45.572;38.086;2024-01-15T04:43:41;2.15;99.03
67364;HTU21D;54250;45.572;38.086;2024-01-15T04:46:07;2.25;99.00
67364;HTU21D;54250;45.572;38.086;2024-01-15T04:48:33;2.37;98.97
67364;HTU21D;54250;45.572;38.086;2024-01-15T04:51:18;2.46;98.80
67364;HTU21D;54250;45.572;38.086;2024-01-15T04:53:44;2.52;98.74
67364;HTU21D;54250;45.572;38.086;2024-01-15T04:56:10;2.56;98.82
67364;HTU21D;54250;45.572;38.086;2024-01-15T04:58:36;2.62;98.82
67364;HTU21D;54250;45.572;38.086;2024-01-15T05:01:02;2.67;98.84
67364;HTU21D;54250;45.572;38.086;2024-01-15T05:03:28;2.69;98.80
67364;HTU21D;54250;45.572;38.086;2024-01-15T05:05:54;2.70;98.79
67364;HTU21D;54250;45.572;38.086;2024-01-15T05:08:39;2.67;98.80
67364;HTU21D;54250;45.572;38.086;2024-01-15T05:11:05;2.65;98.92
67364;HTU21D;54250;45.572;38.086;2024-01-15T05:13:31;2.62;98.97
67364;HTU21D;54250;45.572;38.086;2024-01-15T05:16:15;2.58;98.99
67364;HTU21D;54250;45.572;38.086;2024-01-15T05:18:41;2.57;99.06
67364;HTU21D;54250;45.572;38.086;2024-01-15T05:21:08;2.51;99.08
67364;HTU21D;54250;45.572;38.086;2024-01-15T05:23:34;2.45;99.20
67364;HTU21D;54250;45.572;38.086;2024-01-15T05:26:00;2.42;99.33
67364;HTU21D;54250;45.572;38.086;2024-01-15T05:28:26;2.41;99.32
67364;HTU21D;54250;45.572;38.086;2024-01-15T05:30:52;2.40;99.30
67364;HTU21D;54250;45.572;38.086;2024-01-15T05:33:18;2.39;99.29
67364;HTU21D;54250;45.572;38.086;2024-01-15T05:35:45;2.42;99.29
67364;HTU21D;54250;45.572;38.086;2024-01-15T05:38:10;2.44;99.22
67364;HTU21D;54250;45.572;38.086;2024-01-15T05:40:36;2.49;99.18
67364;HTU21D;54250;45.572;38.086;2024-01-15T05:43:02;2.57;99.14
67364;HTU21D;54250;45.572;38.086;2024-01-15T05:45:30;2.67;98.93
67364;HTU21D;54250;45.572;38.086;2024-01-15T05:47:56;2.73;98.77
67364;HTU21D;54250;45.572;38.086;2024-01-15T05:50:22;2.78;98.68
67364;HTU21D;54250;45.572;38.086;2024-01-15T05:52:48;2.80;98.64
67364;HTU21D;54250;45.572;38.086;2024-01-15T05:55:14;2.81;98.58
67364;HTU21D;54250;45.572;38.086;2024-01-15T05:57:40;2.76;98.64
67364;HTU21D;54250;45.572;38.086;2024-01-15T06:03:09;2.60;99.07
67364;HTU21D;54250;45.572;38.086;2024-01-15T06:08:19;2.64;99.35
67364;HTU21D;54250;45.572;38.086;2024-01-15T06:10:46;2.72;99.30
67364;HTU21D;54250;45.572;38.086;2024-01-15T06:13:12;2.79;99.06
67364;HTU21D;54250;45.572;38.086;2024-01-15T06:15:39;2.83;99.06
67364;HTU21D;54250;45.572;38.086;2024-01-15T06:18:05;2.94;99.02
67364;HTU21D;54250;45.572;38.086;2024-01-15T06:20:49;3.06;98.84
67364;HTU21D;54250;45.572;38.086;2024-01-15T06:23:15;3.21;98.62
67364;HTU21D;54250;45.572;38.086;2024-01-15T06:25:41;3.31;98.47
67364;HTU21D;54250;45.572;38.086;2024-01-15T06:28:07;3.39;98.42
67364;HTU21D;54250;45.572;38.086;2024-01-15T06:30:33;3.49;98.37
67364;HTU21D;54250;45.572;38.086;2024-01-15T06:32:59;3.59;98.26
67364;HTU21D;54250;45.572;38.086;2024-01-15T06:35:25;3.65;98.08
67364;HTU21D;54250;45.572;38.086;2024-01-15T06:40:35;3.63;98.29
67364;HTU21D;54250;45.572;38.086;2024-01-15T06:43:01;3.64;98.34
67364;HTU21D;54250;45.572;38.086;2024-01-15T06:45:30;3.61;98.37
67364;HTU21D;54250;45.572;38.086;2024-01-15T06:47:56;3.62;98.49
67364;HTU21D;54250;45.572;38.086;2024-01-15T06:50:22;3.68;98.53
67364;HTU21D;54250;45.572;38.086;2024-01-15T06:52:49;4.28;99.06
67364;HTU21D;54250;45.572;38.086;2024-01-15T06:55:15;5.59;96.19
67364;HTU21D;54250;45.572;38.086;2024-01-15T06:57:41;7.29;89.61
67364;HTU21D;54250;45.572;38.086;2024-01-15T07:00:07;6.90;91.01
67364;HTU21D;54250;45.572;38.086;2024-01-15T07:02:34;6.44;93.88
67364;HTU21D;54250;45.572;38.086;2024-01-15T07:05:00;6.50;95.18
67364;HTU21D;54250;45.572;38.086;2024-01-15T07:07:25;6.70;95.00
67364;HTU21D;54250;45.572;38.086;2024-01-15T07:09:54;6.76;95.05
67364;HTU21D;54250;45.572;38.086;2024-01-15T07:12:20;6.81;95.10
67364;HTU21D;54250;45.572;38.086;2024-01-15T07:14:46;6.80;95.46
67364;HTU21D;54250;45.572;38.086;2024-01-15T07:17:12;7.78;95.94
67364;HTU21D;54250;45.572;38.086;2024-01-15T07:19:56;11.25;84.97
67364;HTU21D;54250;45.572;38.086;2024-01-15T07:22:22;13.41;79.45
67364;HTU21D;54250;45.572;38.086;2024-01-15T07:24:48;14.09;77.66
67364;HTU21D;54250;45.572;38.086;2024-01-15T07:27:13;12.48;82.56
67364;HTU21D;54250;45.572;38.086;2024-01-15T07:29:39;11.07;88.04
67364;HTU21D;54250;45.572;38.086;2024-01-15T07:32:05;10.27;90.95
67364;HTU21D;54250;45.572;38.086;2024-01-15T07:34:33;9.68;91.89
67364;HTU21D;54250;45.572;38.086;2024-01-15T07:36:59;8.66;93.55
67364;HTU21D;54250;45.572;38.086;2024-01-15T07:39:25;7.70;94.65
67364;HTU21D;54250;45.572;38.086;2024-01-15T07:44:35;6.58;96.81
67364;HTU21D;54250;45.572;38.086;2024-01-15T07:47:01;6.52;97.45
67364;HTU21D;54250;45.572;38.086;2024-01-15T07:49:27;6.49;97.11
67364;HTU21D;54250;45.572;38.086;2024-01-15T07:51:53;6.44;97.20
67364;HTU21D;54250;45.572;38.086;2024-01-15T07:54:37;6.44;96.68
67364;HTU21D;54250;45.572;38.086;2024-01-15T07:57:03;6.28;96.56
67364;HTU21D;54250;45.572;38.086;2024-01-15T07:59:29;6.33;96.68
67364;HTU21D;54250;45.572;38.086;2024-01-15T08:01:55;6.44;96.00
67364;HTU21D;54250;45.572;38.086;2024-01-15T08:04:21;6.53;95.62
67364;HTU21D;54250;45.572;38.086;2024-01-15T08:06:47;6.85;95.97
67364;HTU21D;54250;45.572;38.086;2024-01-15T08:09:13;9.00;92.14
67364;HTU21D;54250;45.572;38.086;2024-01-15T08:11:40;12.01;83.18
67364;HTU21D;54250;45.572;38.086;2024-01-15T08:14:27;12.61;81.18
67364;HTU21D;54250;45.572;38.086;2024-01-15T08:16:53;11.33;86.19
67364;HTU21D;54250;45.572;38.086;2024-01-15T08:19:38;10.38;90.01
67364;HTU21D;54250;45.572;38.086;2024-01-15T08:22:06;9.54;92.93
67364;HTU21D;54250;45.572;38.086;2024-01-15T08:24:32;8.98;94.17
67364;HTU21D;54250;45.572;38.086;2024-01-15T08:26:58;8.42;95.17
67364;HTU21D;54250;45.572;38.086;2024-01-15T08:29:43;7.88;95.39
67364;HTU21D;54250;45.572;38.086;2024-01-15T08:32:10;7.44;95.95
67364;HTU21D;54250;45.572;38.086;2024-01-15T08:34:39;7.19;96.07
67364;HTU21D;54250;45.572;38.086;2024-01-15T08:37:05;6.87;95.87
67364;HTU21D;54250;45.572;38.086;2024-01-15T08:39:31;6.58;96.13
67364;HTU21D;54250;45.572;38.086;2024-01-15T08:41:57;6.42;96.23
67364;HTU21D;54250;45.572;38.086;2024-01-15T08:44:24;7.00;96.51
67364;HTU21D;54250;45.572;38.086;2024-01-15T08:46:49;8.91;93.05
67364;HTU21D;54250;45.572;38.086;2024-01-15T08:49:15;11.20;85.06
67364;HTU21D;54250;45.572;38.086;2024-01-15T08:51:41;11.29;84.79
67364;HTU21D;54250;45.572;38.086;2024-01-15T08:54:07;11.70;84.86
67364;HTU21D;54250;45.572;38.086;2024-01-15T08:56:34;11.99;86.38
67364;HTU21D;54250;45.572;38.086;2024-01-15T08:59:00;12.34;84.19
67364;HTU21D;54250;45.572;38.086;2024-01-15T09:01:26;11.38;86.64
67364;HTU21D;54250;45.572;38.086;2024-01-15T09:03:52;10.13;90.26
67364;HTU21D;54250;45.572;38.086;2024-01-15T09:06:18;8.94;92.82
67364;HTU21D;54250;45.572;38.086;2024-01-15T09:08:44;8.04;94.07
67364;HTU21D;54250;45.572;38.086;2024-01-15T09:11:10;7.42;94.86
67364;HTU21D;54250;45.572;38.086;2024-01-15T09:16:21;6.46;95.15
67364;HTU21D;54250;45.572;38.086;2024-01-15T09:18:46;6.02;95.74
67364;HTU21D;54250;45.572;38.086;2024-01-15T09:21:12;5.72;96.43
67364;HTU21D;54250;45.572;38.086;2024-01-15T09:23:38;5.55;96.62
67364;HTU21D;54250;45.572;38.086;2024-01-15T09:26:04;5.70;97.16
67364;HTU21D;54250;45.572;38.086;2024-01-15T09:28:30;6.97;95.36
67364;HTU21D;54250;45.572;38.086;2024-01-15T09:30:56;7.82;93.00
67364;HTU21D;54250;45.572;38.086;2024-01-15T09:33:21;9.26;90.13
67364;HTU21D;54250;45.572;38.086;2024-01-15T09:35:47;9.64;88.67
67364;HTU21D;54250;45.572;38.086;2024-01-15T09:38:13;9.17;91.51
67364;HTU21D;54250;45.572;38.086;2024-01-15T09:40:42;8.89;92.43
67364;HTU21D;54250;45.572;38.086;2024-01-15T09:43:09;8.32;93.80
67364;HTU21D;54250;45.572;38.086;2024-01-15T09:45:35;7.67;94.85
67364;HTU21D;54250;45.572;38.086;2024-01-15T09:48:01;7.04;95.88
67364;HTU21D;54250;45.572;38.086;2024-01-15T09:50:27;6.72;96.40
67364;HTU21D;54250;45.572;38.086;2024-01-15T09:52:54;6.67;96.26
67364;HTU21D;54250;45.572;38.086;2024-01-15T09:55:22;6.63;95.73
67364;HTU21D;54250;45.572;38.086;2024-01-15T09:57:49;6.45;95.62
67364;HTU21D;54250;45.572;38.086;2024-01-15T10:00:20;6.38;95.62
67364;HTU21D;54250;45.572;38.086;2024-01-15T10:02:46;6.30;95.66
67364;HTU21D;54250;45.572;38.086;2024-01-15T10:05:12;6.17;95.60
67364;HTU21D;54250;45.572;38.086;2024-01-15T10:07:39;6.38;96.20
67364;HTU21D;54250;45.572;38.086;2024-01-15T10:10:05;6.80;94.90
67364;HTU21D;54250;45.572;38.086;2024-01-15T10:12:33;6.95;94.31
67364;HTU21D;54250;45.572;38.086;2024-01-15T10:14:59;6.58;94.69
67364;HTU21D;54250;45.572;38.086;2024-01-15T10:17:25;6.26;95.64
67364;HTU21D;54250;45.572;38.086;2024-01-15T10:22:42;5.69;96.51
67364;HTU21D;54250;45.572;38.086;2024-01-15T10:25:16;5.51;96.64
67364;HTU21D;54250;45.572;38.086;2024-01-15T10:28:04;5.35;96.80
67364;HTU21D;54250;45.572;38.086;2024-01-15T10:30:32;5.28;96.99
67364;HTU21D;54250;45.572;38.086;2024-01-15T10:32:59;5.39;97.20
67364;HTU21D;54250;45.572;38.086;2024-01-15T10:35:34;5.74;97.24
67364;HTU21D;54250;45.572;38.086;2024-01-15T10:38:00;6.20;96.37
67364;HTU21D;54250;45.572;38.086;2024-01-15T10:40:27;6.43;95.70
67364;HTU21D;54250;45.572;38.086;2024-01-15T10:42:53;6.48;95.71
67364;HTU21D;54250;45.572;38.086;2024-01-15T10:45:19;6.39;96.17
67364;HTU21D;54250;45.572;38.086;2024-01-15T10:47:45;6.45;96.69
67364;HTU21D;54250;45.572;38.086;2024-01-15T10:50:12;6.88;96.71
67364;HTU21D;54250;45.572;38.086;2024-01-15T10:52:40;7.05;96.27
67364;HTU21D;54250;45.572;38.086;2024-01-15T10:55:09;6.78;97.33
67364;HTU21D;54250;45.572;38.086;2024-01-15T10:57:37;6.67;98.10
67364;HTU21D;54250;45.572;38.086;2024-01-15T11:00:04;6.60;98.05
67364;HTU21D;54250;45.572;38.086;2024-01-15T11:02:36;6.46;98.18
67364;HTU21D;54250;45.572;38.086;2024-01-15T11:05:03;6.41;98.29
67364;HTU21D;54250;45.572;38.086;2024-01-15T11:10:43;6.65;97.96
67364;HTU21D;54250;45.572;38.086;2024-01-15T11:16:03;7.02;96.83
67364;HTU21D;54250;45.572;38.086;2024-01-15T11:18:35;7.18;96.92
67364;HTU21D;54250;45.572;38.086;2024-01-15T11:21:20;7.27;96.94
67364;HTU21D;54250;45.572;38.086;2024-01-15T11:23:49;7.28;97.06
67364;HTU21D;54250;45.572;38.086;2024-01-15T11:26:37;7.24;96.91
67364;HTU21D;54250;45.572;38.086;2024-01-15T11:32:06;6.94;97.13
67364;HTU21D;54250;45.572;38.086;2024-01-15T11:37:21;6.78;96.93
67364;HTU21D;54250;45.572;38.086;2024-01-15T11:39:51;6.66;96.91
67364;HTU21D;54250;45.572;38.086;2024-01-15T11:42:19;6.51;96.87
67364;HTU21D;54250;45.572;38.086;2024-01-15T11:44:46;6.30;96.84
67364;HTU21D;54250;45.572;38.086;2024-01-15T11:47:12;6.00;97.35
67364;HTU21D;54250;45.572;38.086;2024-01-15T11:50:01;5.82;97.80
67364;HTU21D;54250;45.572;38.086;2024-01-15T11:52:38;5.85;97.90
67364;HTU21D;54250;45.572;38.086;2024-01-15T11:58:01;5.96;97.70
67364;HTU21D;54250;45.572;38.086;2024-01-15T12:00:29;6.08;97.66
67364;HTU21D;54250;45.572;38.086;2024-01-15T12:02:55;6.29;97.55
67364;HTU21D;54250;45.572;38.086;2024-01-15T12:05:23;6.54;97.00
67364;HTU21D;54250;45.572;38.086;2024-01-15T12:07:50;6.70;96.63
67364;HTU21D;54250;45.572;38.086;2024-01-15T12:10:20;6.71;96.56
67364;HTU21D;54250;45.572;38.086;2024-01-15T12:13:13;6.64;96.55
67364;HTU21D;54250;45.572;38.086;2024-01-15T12:15:57;6.73;96.72
67364;HTU21D;54250;45.572;38.086;2024-01-15T12:18:23;6.85;96.46
67364;HTU21D;54250;45.572;38.086;2024-01-15T12:20:54;6.96;96.10
67364;HTU21D;54250;45.572;38.086;2024-01-15T12:23:39;6.96;95.61
67364;HTU21D;54250;45.572;38.086;2024-01-15T12:28:52;6.71;95.78
67364;HTU21D;54250;45.572;38.086;2024-01-15T12:31:20;6.58;96.03
67364;HTU21D;54250;45.572;38.086;2024-01-15T12:33:46;6.51;96.24
67364;HTU21D;54250;45.572;38.086;2024-01-15T12:36:13;6.55;96.45
67364;HTU21D;54250;45.572;38.086;2024-01-15T12:38:39;6.68;96.14
67364;HTU21D;54250;45.572;38.086;2024-01-15T12:41:05;6.80;95.65
67364;HTU21D;54250;45.572;38.086;2024-01-15T12:43:30;6.86;95.44
67364;HTU21D;54250;45.572;38.086;2024-01-15T12:45:57;6.80;95.43
67364;HTU21D;54250;45.572;38.086;2024-01-15T12:48:22;6.73;95.73
67364;HTU21D;54250;45.572;38.086;2024-01-15T12:50:48;6.78;95.58
67364;HTU21D;54250;45.572;38.086;2024-01-15T12:53:14;6.86;95.16
67364;HTU21D;54250;45.572;38.086;2024-01-15T12:55:40;6.87;94.99
67364;HTU21D;54250;45.572;38.086;2024-01-15T12:58:06;6.86;94.84
67364;HTU21D;54250;45.572;38.086;2024-01-15T13:00:32;6.63;94.95
67364;HTU21D;54250;45.572;38.086;2024-01-15T13:02:58;6.31;95.68
67364;HTU21D;54250;45.572;38.086;2024-01-15T13:05:26;6.05;96.01
67364;HTU21D;54250;45.572;38.086;2024-01-15T13:07:53;5.89;96.21
67364;HTU21D;54250;45.572;38.086;2024-01-15T13:10:18;5.86;96.24
67364;HTU21D;54250;45.572;38.086;2024-01-15T13:12:44;5.87;95.81
67364;HTU21D;54250;45.572;38.086;2024-01-15T13:15:10;5.91;95.66
67364;HTU21D;54250;45.572;38.086;2024-01-15T13:17:38;5.96;95.52
67364;HTU21D;54250;45.572;38.086;2024-01-15T13:20:06;5.99;95.52
67364;HTU21D;54250;45.572;38.086;2024-01-15T13:22:33;6.01;95.36
67364;HTU21D;54250;45.572;38.086;2024-01-15T13:24:59;6.07;95.42
67364;HTU21D;54250;45.572;38.086;2024-01-15T13:27:25;6.09;95.49
67364;HTU21D;54250;45.572;38.086;2024-01-15T13:29:51;6.05;95.78
67364;HTU21D;54250;45.572;38.086;2024-01-15T13:32:23;6.00;95.97
67364;HTU21D;54250;45.572;38.086;2024-01-15T13:34:50;5.96;96.17
67364;HTU21D;54250;45.572;38.086;2024-01-15T13:37:16;5.92;96.29
67364;HTU21D;54250;45.572;38.086;2024-01-15T13:39:41;5.91;96.46
67364;HTU21D;54250;45.572;38.086;2024-01-15T13:42:07;5.94;96.49
67364;HTU21D;54250;45.572;38.086;2024-01-15T13:44:33;5.97;96.36
67364;HTU21D;54250;45.572;38.086;2024-01-15T13:46:59;5.99;96.08
67364;HTU21D;54250;45.572;38.086;2024-01-15T13:49:25;5.97;96.17
67364;HTU21D;54250;45.572;38.086;2024-01-15T13:52:09;5.87;96.35
67364;HTU21D;54250;45.572;38.086;2024-01-15T13:54:35;5.76;96.41
67364;HTU21D;54250;45.572;38.086;2024-01-15T13:57:01;5.63;96.74
67364;HTU21D;54250;45.572;38.086;2024-01-15T13:59:27;5.51;96.99
67364;HTU21D;54250;45.572;38.086;2024-01-15T14:01:53;5.41;97.08
67364;HTU21D;54250;45.572;38.086;2024-01-15T14:04:19;5.31;97.20
67364;HTU21D;54250;45.572;38.086;2024-01-15T14:06:45;5.25;97.18
67364;HTU21D;54250;45.572;38.086;2024-01-15T14:09:11;5.19;97.25
67364;HTU21D;54250;45.572;38.086;2024-01-15T14:11:40;5.21;97.20
67364;HTU21D;54250;45.572;38.086;2024-01-15T14:14:06;5.25;97.01
67364;HTU21D;54250;45.572;38.086;2024-01-15T14:16:34;5.36;96.63
67364;HTU21D;54250;45.572;38.086;2024-01-15T14:19:00;5.47;96.31
67364;HTU21D;54250;45.572;38.086;2024-01-15T14:21:28;5.55;96.03
67364;HTU21D;54250;45.572;38.086;2024-01-15T14:23:53;5.61;95.94
67364;HTU21D;54250;45.572;38.086;2024-01-15T14:26:19;5.61;95.97
67364;HTU21D;54250;45.572;38.086;2024-01-15T14:28:45;5.54;96.16
67364;HTU21D;54250;45.572;38.086;2024-01-15T14:31:12;5.54;96.36
67364;HTU21D;54250;45.572;38.086;2024-01-15T14:33:38;5.57;96.33
67364;HTU21D;54250;45.572;38.086;2024-01-15T14:36:05;5.59;96.20
67364;HTU21D;54250;45.572;38.086;2024-01-15T14:38:31;5.49;96.26
67364;HTU21D;54250;45.572;38.086;2024-01-15T14:40:56;5.46;96.50
67364;HTU21D;54250;45.572;38.086;2024-01-15T14:43:41;5.49;96.38
67364;HTU21D;54250;45.572;38.086;2024-01-15T14:46:07;5.51;96.23
67364;HTU21D;54250;45.572;38.086;2024-01-15T14:48:33;5.55;96.04
67364;HTU21D;54250;45.572;38.086;2024-01-15T14:50:58;5.56;96.04
67364;HTU21D;54250;45.572;38.086;2024-01-15T14:53:24;5.51;96.05
67364;HTU21D;54250;45.572;38.086;2024-01-15T14:55:50;5.47;96.12
67364;HTU21D;54250;45.572;38.086;2024-01-15T14:58:16;5.48;96.12
67364;HTU21D;54250;45.572;38.086;2024-01-15T15:00:42;5.50;95.96
67364;HTU21D;54250;45.572;38.086;2024-01-15T15:03:08;5.53;96.01
67364;HTU21D;54250;45.572;38.086;2024-01-15T15:05:34;5.63;95.81
67364;HTU21D;54250;45.572;38.086;2024-01-15T15:08:00;5.69;95.61
67364;HTU21D;54250;45.572;38.086;2024-01-15T15:10:26;5.74;95.48
67364;HTU21D;54250;45.572;38.086;2024-01-15T15:12:52;5.76;95.50
67364;HTU21D;54250;45.572;38.086;2024-01-15T15:15:18;5.75;95.55
67364;HTU21D;54250;45.572;38.086;2024-01-15T15:17:44;5.69;95.62
67364;HTU21D;54250;45.572;38.086;2024-01-15T15:20:10;5.65;95.79
67364;HTU21D;54250;45.572;38.086;2024-01-15T15:22:36;5.68;95.70
67364;HTU21D;54250;45.572;38.086;2024-01-15T15:25:02;5.69;95.59
67364;HTU21D;54250;45.572;38.086;2024-01-15T15:27:28;5.72;95.48
67364;HTU21D;54250;45.572;38.086;2024-01-15T15:29:54;5.79;95.43
67364;HTU21D;54250;45.572;38.086;2024-01-15T15:32:21;5.85;95.25
67364;HTU21D;54250;45.572;38.086;2024-01-15T15:34:46;5.87;95.14
67364;HTU21D;54250;45.572;38.086;2024-01-15T15:37:12;5.90;95.13
67364;HTU21D;54250;45.572;38.086;2024-01-15T15:39:42;5.92;95.14
67364;HTU21D;54250;45.572;38.086;2024-01-15T15:42:08;5.89;95.21
67364;HTU21D;54250;45.572;38.086;2024-01-15T15:44:34;5.85;95.19
67364;HTU21D;54250;45.572;38.086;2024-01-15T15:47:00;5.85;95.15
67364;HTU21D;54250;45.572;38.086;2024-01-15T15:49:26;5.87;95.14
67364;HTU21D;54250;45.572;38.086;2024-01-15T15:51:52;5.87;95.18
67364;HTU21D;54250;45.572;38.086;2024-01-15T15:54:18;5.87;95.18
67364;HTU21D;54250;45.572;38.086;2024-01-15T15:56:44;5.84;95.11
67364;HTU21D;54250;45.572;38.086;2024-01-15T15:59:13;5.83;95.05
67364;HTU21D;54250;45.572;38.086;2024-01-15T16:01:39;5.83;95.15
67364;HTU21D;54250;45.572;38.086;2024-01-15T16:04:05;5.82;95.12
67364;HTU21D;54250;45.572;38.086;2024-01-15T16:06:49;5.81;95.16
67364;HTU21D;54250;45.572;38.086;2024-01-15T16:09:15;5.81;95.24
67364;HTU21D;54250;45.572;38.086;2024-01-15T16:11:41;5.83;95.32